createdAt,value
2022-07-28T00:04:10.399Z,1.37
2022-07-28T00:09:11.748Z,1.37
2022-07-28T00:14:13.536Z,1.40
2022-07-28T00:19:15.140Z,1.40
2022-07-28T00:24:16.773Z,1.30
2022-07-28T00:29:18.390Z,1.35
2022-07-28T00:34:19.670Z,1.23
2022-07-28T00:39:28.046Z,1.50
2022-07-28T00:44:29.330Z,1.20
2022-07-28T00:49:30.626Z,1.40
2022-07-28T00:54:32.607Z,1.30
2022-07-28T00:59:34.150Z,1.40
2022-07-28T01:04:35.559Z,1.30
2022-07-28T01:09:42.903Z,1.30
2022-07-28T01:15:03.235Z,1.43
2022-07-28T01:20:07.516Z,1.17
2022-07-28T01:25:30.228Z,1.30
2022-07-28T01:30:44.678Z,1.23
2022-07-28T01:36:02.342Z,1.30
2022-07-28T01:41:05.090Z,1.40
2022-07-28T01:46:06.647Z,1.10
2022-07-28T01:51:09.083Z,1.30
2022-07-28T01:56:11.383Z,1.13
2022-07-28T02:01:13.321Z,1.85
2022-07-28T02:06:15.251Z,1.40
2022-07-28T02:11:35.052Z,1.10
2022-07-28T02:16:36.530Z,1.20
2022-07-28T02:21:38.375Z,1.47
2022-07-28T02:26:42.431Z,1.40
2022-07-28T02:31:47.634Z,1.20
2022-07-28T02:36:53.747Z,1.47
2022-07-28T02:42:00.329Z,1.30
2022-07-28T02:47:04.787Z,1.15
2022-07-28T02:52:08.338Z,1.20
2022-07-28T02:57:10.600Z,1.30
2022-07-28T03:02:12.521Z,1.60
2022-07-28T03:07:13.997Z,1.30
2022-07-28T03:12:15.515Z,1.60
2022-07-28T03:17:17.217Z,1.20
2022-07-28T03:22:18.520Z,1.20
2022-07-28T03:27:25.347Z,1.70
2022-07-28T03:32:27.514Z,1.40
2022-07-28T03:37:33.370Z,1.30
2022-07-28T03:42:35.600Z,1.30
2022-07-28T03:47:36.893Z,1.30
2022-07-28T03:52:38.186Z,1.40
2022-07-28T03:57:39.471Z,1.48
2022-07-28T04:02:43.756Z,1.40
2022-07-28T04:07:46.091Z,1.55
2022-07-28T04:12:48.429Z,2.90
2022-07-28T04:17:51.445Z,1.40
2022-07-28T04:22:53.696Z,1.10
2022-07-28T04:27:55.486Z,1.58
2022-07-28T04:32:56.814Z,1.40
2022-07-28T04:37:58.628Z,1.30
2022-07-28T04:43:00.346Z,1.50
2022-07-28T04:48:01.617Z,1.40
2022-07-28T04:53:02.994Z,1.33
2022-07-28T04:58:04.784Z,1.30
2022-07-28T05:03:08.145Z,1.40
2022-07-28T05:08:09.431Z,1.77
2022-07-28T05:13:10.917Z,1.60
2022-07-28T05:18:12.255Z,1.63
2022-07-28T05:23:13.595Z,1.45
2022-07-28T05:28:14.856Z,1.60
2022-07-28T05:33:18.443Z,1.40
2022-07-28T05:38:19.725Z,1.25
2022-07-28T05:43:21.257Z,1.80
2022-07-28T05:48:22.597Z,1.60
2022-07-28T05:53:24.011Z,1.25
2022-07-28T05:58:25.505Z,1.23
2022-07-28T06:03:28.060Z,1.30
2022-07-28T06:08:29.755Z,1.50
2022-07-28T06:13:31.061Z,1.95
2022-07-28T06:18:32.556Z,1.30
2022-07-28T06:23:33.861Z,1.52
2022-07-28T06:28:35.183Z,1.60
2022-07-28T06:33:36.492Z,1.50
2022-07-28T06:38:37.778Z,1.50
2022-07-28T06:43:39.483Z,1.70
2022-07-28T06:48:43.321Z,1.63
2022-07-28T06:53:45.278Z,1.50
2022-07-28T06:58:47.485Z,1.90
2022-07-28T07:03:48.942Z,1.70
2022-07-28T07:08:50.306Z,1.80
2022-07-28T07:13:52.639Z,2.08
2022-07-28T07:18:56.382Z,1.90
2022-07-28T07:23:58.592Z,2.23
2022-07-28T07:28:59.895Z,1.92
2022-07-28T07:34:04.048Z,2.40
2022-07-28T07:39:05.326Z,2.30
2022-07-28T07:44:06.773Z,2.50
2022-07-28T07:49:08.105Z,2.58
2022-07-28T07:54:09.935Z,2.33
2022-07-28T07:59:11.365Z,2.20
2022-07-28T08:04:13.996Z,3.00
2022-07-28T08:09:17.143Z,2.60
2022-07-28T08:14:18.828Z,2.43
2022-07-28T08:19:21.776Z,2.63
2022-07-28T08:24:29.041Z,2.40
2022-07-28T08:29:35.510Z,2.57
2022-07-28T08:34:36.965Z,2.90
2022-07-28T08:39:38.374Z,2.67
2022-07-28T08:44:46.044Z,2.90
2022-07-28T08:49:48.028Z,2.90
2022-07-28T08:54:50.523Z,2.70
2022-07-28T08:59:52.168Z,3.10
2022-07-28T09:04:54.569Z,2.90
2022-07-28T09:09:57.407Z,3.17
2022-07-28T09:15:04.359Z,3.00
2022-07-28T09:20:10.687Z,3.40
2022-07-28T09:25:18.379Z,3.00
2022-07-28T09:30:29.835Z,3.47
2022-07-28T09:35:31.174Z,3.50
2022-07-28T09:40:32.489Z,3.23
2022-07-28T09:45:34.059Z,3.50
2022-07-28T09:50:35.438Z,3.40
2022-07-28T09:55:53.143Z,3.17
2022-07-28T10:01:08.471Z,3.60
2022-07-28T10:06:16.318Z,3.65
2022-07-28T10:11:18.769Z,3.50
2022-07-28T10:16:21.225Z,3.73
2022-07-28T10:21:23.409Z,4.00
2022-07-28T10:26:30.813Z,3.88
2022-07-28T10:31:44.745Z,3.63
2022-07-28T10:36:47.051Z,4.13
2022-07-28T10:41:48.581Z,3.72
2022-07-28T10:46:50.506Z,3.70
2022-07-28T10:52:06.546Z,4.13
2022-07-28T10:57:15.560Z,4.15
2022-07-28T11:02:35.574Z,4.07
2022-07-28T11:07:38.708Z,3.93
2022-07-28T11:13:06.255Z,4.45
2022-07-28T11:18:15.731Z,4.10
2022-07-28T11:23:37.282Z,4.23
2022-07-28T11:28:57.441Z,4.50
2022-07-28T11:33:58.774Z,4.30
2022-07-28T11:39:18.862Z,3.73
2022-07-28T11:44:26.302Z,4.47
2022-07-28T11:49:27.944Z,3.90
2022-07-28T11:54:29.629Z,4.37
2022-07-28T11:59:49.738Z,4.10
2022-07-28T12:04:58.513Z,4.60
2022-07-28T12:10:00.385Z,4.18
2022-07-28T12:15:06.690Z,4.00
2022-07-28T12:20:13.973Z,4.00
2022-07-28T12:25:15.511Z,4.50
2022-07-28T12:30:22.613Z,3.77
2022-07-28T12:35:24.995Z,3.78
2022-07-28T12:40:29.094Z,3.97
2022-07-28T12:45:33.288Z,4.37
2022-07-28T12:50:37.919Z,3.70
2022-07-28T12:55:40.795Z,4.13
2022-07-28T13:00:49.071Z,4.10
2022-07-28T13:06:02.553Z,3.60
2022-07-28T13:11:07.314Z,4.20
2022-07-28T13:16:21.530Z,3.60
2022-07-28T13:21:57.130Z,4.00
2022-07-28T13:27:01.646Z,4.30
2022-07-28T13:32:03.604Z,3.80
2022-07-28T13:37:05.037Z,3.77
2022-07-28T13:42:06.791Z,3.80
2022-07-28T13:47:11.853Z,3.97
2022-07-28T13:52:32.969Z,3.92
2022-07-28T13:57:36.961Z,3.70
2022-07-28T14:02:38.478Z,3.88
2022-07-28T14:07:48.371Z,4.00
2022-07-28T14:12:50.506Z,3.70
2022-07-28T14:17:52.632Z,3.90
2022-07-28T14:22:54.063Z,3.85
2022-07-28T14:27:55.582Z,4.57
2022-07-28T14:32:57.168Z,3.87
2022-07-28T14:43:20.012Z,3.70
2022-07-28T14:48:21.293Z,3.83
2022-07-28T14:53:23.121Z,3.58
2022-07-28T14:58:24.468Z,3.60
2022-07-28T15:03:34.238Z,3.77
2022-07-28T15:08:37.457Z,3.78
2022-07-28T15:13:39.134Z,3.83
2022-07-28T15:18:40.714Z,3.80
2022-07-28T15:23:42.336Z,4.30
2022-07-28T15:28:43.726Z,4.25
2022-07-28T15:33:48.222Z,3.80
2022-07-28T15:38:52.986Z,3.63
2022-07-28T15:43:54.757Z,3.50
2022-07-28T15:48:56.095Z,3.60
2022-07-28T15:54:00.626Z,3.60
2022-07-28T15:59:02.844Z,3.75
2022-07-28T16:04:04.194Z,3.60
2022-07-28T16:09:05.491Z,3.43
2022-07-28T16:14:06.802Z,3.53
2022-07-28T16:19:25.143Z,4.00
2022-07-28T16:24:30.166Z,4.32
2022-07-28T16:29:31.580Z,3.77
2022-07-28T16:34:32.845Z,3.80
2022-07-28T16:39:34.545Z,3.63
2022-07-28T16:44:37.657Z,3.60
2022-07-28T16:49:43.693Z,3.53
2022-07-28T16:54:47.403Z,3.35
2022-07-28T16:59:49.305Z,3.63
2022-07-28T17:04:50.683Z,3.40
2022-07-28T17:09:52.033Z,3.40
2022-07-28T17:14:53.338Z,3.60
2022-07-28T17:19:54.705Z,3.30
2022-07-28T17:24:56.070Z,3.47
2022-07-28T17:29:58.093Z,3.85
2022-07-28T17:34:59.639Z,3.70
2022-07-28T17:40:00.983Z,3.67
2022-07-28T17:45:06.333Z,3.80
2022-07-28T17:50:09.729Z,3.67
2022-07-28T17:55:29.642Z,3.80
2022-07-28T18:00:32.655Z,3.50
2022-07-28T18:05:34.127Z,3.72
2022-07-28T18:10:35.982Z,3.47
2022-07-28T18:15:38.412Z,3.50
2022-07-28T18:20:40.081Z,3.50
2022-07-28T18:25:45.230Z,3.50
2022-07-28T18:30:46.831Z,3.65
2022-07-28T18:35:48.150Z,3.70
2022-07-28T18:40:52.832Z,3.70
2022-07-28T18:45:54.604Z,3.73
2022-07-28T18:50:55.981Z,3.65
2022-07-28T18:55:57.320Z,3.88
2022-07-28T19:00:58.687Z,3.80
2022-07-28T19:06:00.008Z,3.97
2022-07-28T19:11:01.322Z,3.67
2022-07-28T19:16:02.972Z,3.67
2022-07-28T19:21:04.311Z,3.60
2022-07-28T19:26:05.621Z,3.50
2022-07-28T19:31:10.370Z,3.30
2022-07-28T19:36:15.400Z,3.73
2022-07-28T19:41:16.668Z,3.60
2022-07-28T19:46:18.931Z,4.60
2022-07-28T19:51:20.342Z,3.67
2022-07-28T19:56:22.080Z,3.25
2022-07-28T20:01:31.755Z,3.50
2022-07-28T20:06:33.300Z,4.57
2022-07-28T20:11:35.830Z,4.22
2022-07-28T20:16:37.173Z,3.88
2022-07-28T20:21:39.578Z,3.90
2022-07-28T20:26:40.983Z,3.83
2022-07-28T20:31:42.269Z,3.90
2022-07-28T20:36:43.660Z,4.00
2022-07-28T20:41:44.952Z,4.30
2022-07-28T20:46:47.115Z,3.35
2022-07-28T20:51:51.254Z,3.65
2022-07-28T20:56:52.754Z,3.00
2022-07-28T21:01:54.253Z,3.60
2022-07-28T21:07:01.543Z,3.40
2022-07-28T21:12:03.845Z,3.40
2022-07-28T21:17:05.328Z,3.60
2022-07-28T21:22:07.823Z,3.67
2022-07-28T21:27:09.194Z,3.95
2022-07-28T21:32:10.523Z,3.23
2022-07-28T21:37:12.712Z,3.80
2022-07-28T21:42:14.019Z,3.70
2022-07-28T21:47:15.290Z,4.57
2022-07-28T21:52:16.581Z,4.15
2022-07-28T21:57:24.677Z,3.85
2022-07-28T22:02:26.721Z,3.70
2022-07-28T22:07:28.070Z,3.93
2022-07-28T22:12:29.510Z,3.83
2022-07-28T22:17:30.923Z,3.65
2022-07-28T22:22:32.300Z,3.70
2022-07-28T22:27:33.657Z,4.10
2022-07-28T22:32:34.945Z,4.40
2022-07-28T22:37:36.422Z,3.60
2022-07-28T22:42:37.721Z,3.58
2022-07-28T22:47:39.010Z,3.65
2022-07-28T22:52:40.391Z,3.70
2022-07-28T22:57:41.702Z,3.90
2022-07-28T23:02:43.063Z,3.80
2022-07-28T23:07:53.451Z,4.10
2022-07-28T23:12:58.939Z,3.90
2022-07-28T23:18:00.242Z,3.95
2022-07-28T23:23:02.306Z,3.72
2022-07-28T23:28:03.784Z,3.40
2022-07-28T23:33:05.302Z,3.65
2022-07-28T23:38:06.573Z,4.07
2022-07-28T23:43:07.842Z,3.60
2022-07-28T23:48:09.121Z,3.60
2022-07-28T23:53:10.399Z,3.80
2022-07-28T23:58:11.854Z,4.05
